sensor_id;sensor_type;location;lat;lon;timestamp;pressure;altitude;pressure_sealevel;temperature;humidity
74958;BME280;63741;42.624;26.276;2022-10-19T00:00:47;100318.81;;;11.67;63.43
74958;BME280;63741;42.624;26.276;2022-10-19T00:03:14;100311.19;;;11.62;63.69
74958;BME280;63741;42.624;26.276;2022-10-19T00:05:47;100305.56;;;11.67;63.00
74958;BME280;63741;42.624;26.276;2022-10-19T00:08:14;100311.41;;;11.59;63.20
74958;BME280;63741;42.624;26.276;2022-10-19T00:10:41;100303.16;;;11.51;63.07
74958;BME280;63741;42.624;26.276;2022-10-19T00:13:08;100305.41;;;11.45;63.19
74958;BME280;63741;42.624;26.276;2022-10-19T00:15:39;100298.09;;;11.35;63.96
74958;BME280;63741;42.624;26.276;2022-10-19T00:18:07;100292.16;;;11.32;63.88
74958;BME280;63741;42.624;26.276;2022-10-19T00:20:34;100291.00;;;11.36;63.10
74958;BME280;63741;42.624;26.276;2022-10-19T00:23:01;100285.38;;;11.28;63.66
74958;BME280;63741;42.624;26.276;2022-10-19T00:25:28;100278.19;;;11.30;62.92
74958;BME280;63741;42.624;26.276;2022-10-19T00:27:55;100274.34;;;11.34;63.15
74958;BME280;63741;42.624;26.276;2022-10-19T00:30:22;100271.50;;;11.24;63.75
74958;BME280;63741;42.624;26.276;2022-10-19T00:32:49;100271.09;;;11.18;63.62
74958;BME280;63741;42.624;26.276;2022-10-19T00:35:16;100259.22;;;11.10;63.63
74958;BME280;63741;42.624;26.276;2022-10-19T00:37:43;100256.69;;;11.22;63.17
74958;BME280;63741;42.624;26.276;2022-10-19T00:40:10;100260.41;;;11.19;63.65
74958;BME280;63741;42.624;26.276;2022-10-19T00:42:37;100259.53;;;11.31;62.82
74958;BME280;63741;42.624;26.276;2022-10-19T00:45:11;100249.28;;;11.14;63.33
74958;BME280;63741;42.624;26.276;2022-10-19T00:47:40;100253.75;;;11.01;63.90
74958;BME280;63741;42.624;26.276;2022-10-19T00:50:08;100244.84;;;11.02;64.12
74958;BME280;63741;42.624;26.276;2022-10-19T00:52:35;100239.88;;;10.97;64.32
74958;BME280;63741;42.624;26.276;2022-10-19T00:55:03;100236.50;;;10.95;64.28
74958;BME280;63741;42.624;26.276;2022-10-19T00:57:30;100236.81;;;10.91;64.37
74958;BME280;63741;42.624;26.276;2022-10-19T00:59:59;100232.88;;;10.83;64.44
74958;BME280;63741;42.624;26.276;2022-10-19T01:02:27;100229.50;;;10.69;64.49
74958;BME280;63741;42.624;26.276;2022-10-19T01:04:54;100219.97;;;10.79;64.05
74958;BME280;63741;42.624;26.276;2022-10-19T01:07:22;100224.31;;;10.67;64.53
74958;BME280;63741;42.624;26.276;2022-10-19T01:09:49;100208.31;;;10.56;64.20
74958;BME280;63741;42.624;26.276;2022-10-19T01:15:10;100214.34;;;10.58;64.28
74958;BME280;63741;42.624;26.276;2022-10-19T01:34:31;100205.25;;;10.36;64.80
74958;BME280;63741;42.624;26.276;2022-10-19T01:40:18;100195.81;;;10.32;64.24
74958;BME280;63741;42.624;26.276;2022-10-19T01:43:02;100191.31;;;10.20;64.65
74958;BME280;63741;42.624;26.276;2022-10-19T01:48:23;100185.63;;;10.13;64.96
74958;BME280;63741;42.624;26.276;2022-10-19T01:53:28;100183.03;;;10.12;65.07
74958;BME280;63741;42.624;26.276;2022-10-19T01:55:56;100186.16;;;10.19;64.19
74958;BME280;63741;42.624;26.276;2022-10-19T01:58:27;100186.00;;;10.07;64.72
74958;BME280;63741;42.624;26.276;2022-10-19T02:01:00;100188.56;;;10.09;64.27
74958;BME280;63741;42.624;26.276;2022-10-19T02:03:28;100173.50;;;9.97;64.41
74958;BME280;63741;42.624;26.276;2022-10-19T02:05:55;100179.94;;;9.93;64.78
74958;BME280;63741;42.624;26.276;2022-10-19T02:08:28;100181.63;;;9.94;65.77
74958;BME280;63741;42.624;26.276;2022-10-19T02:10:58;100172.91;;;10.06;64.80
74958;BME280;63741;42.624;26.276;2022-10-19T02:13:26;100174.16;;;10.13;64.39
74958;BME280;63741;42.624;26.276;2022-10-19T02:15:55;100171.13;;;10.19;64.21
74958;BME280;63741;42.624;26.276;2022-10-19T02:18:32;100171.75;;;10.10;64.52
74958;BME280;63741;42.624;26.276;2022-10-19T02:21:02;100166.50;;;10.23;64.23
74958;BME280;63741;42.624;26.276;2022-10-19T02:23:29;100165.69;;;10.08;63.57
74958;BME280;63741;42.624;26.276;2022-10-19T02:25:57;100166.94;;;9.90;65.03
74958;BME280;63741;42.624;26.276;2022-10-19T02:28:26;100170.47;;;9.76;65.15
74958;BME280;63741;42.624;26.276;2022-10-19T02:30:53;100172.69;;;9.69;64.99
74958;BME280;63741;42.624;26.276;2022-10-19T02:33:20;100162.72;;;9.60;65.07
74958;BME280;63741;42.624;26.276;2022-10-19T02:35:47;100164.06;;;9.53;65.94
74958;BME280;63741;42.624;26.276;2022-10-19T02:38:18;100162.06;;;9.56;66.20
74958;BME280;63741;42.624;26.276;2022-10-19T02:41:12;100161.00;;;9.59;65.67
74958;BME280;63741;42.624;26.276;2022-10-19T02:43:44;100157.53;;;9.58;65.40
74958;BME280;63741;42.624;26.276;2022-10-19T02:46:19;100163.34;;;9.63;65.38
74958;BME280;63741;42.624;26.276;2022-10-19T02:48:50;100150.78;;;9.67;65.91
74958;BME280;63741;42.624;26.276;2022-10-19T02:51:57;100165.38;;;9.73;65.67
74958;BME280;63741;42.624;26.276;2022-10-19T02:54:25;100162.13;;;9.69;65.19
74958;BME280;63741;42.624;26.276;2022-10-19T02:56:52;100159.78;;;9.65;64.72
74958;BME280;63741;42.624;26.276;2022-10-19T02:59:18;100157.88;;;9.67;65.36
74958;BME280;63741;42.624;26.276;2022-10-19T03:01:46;100144.44;;;9.57;65.49
74958;BME280;63741;42.624;26.276;2022-10-19T03:04:13;100148.94;;;9.55;66.12
74958;BME280;63741;42.624;26.276;2022-10-19T03:06:40;100147.19;;;9.55;65.88
74958;BME280;63741;42.624;26.276;2022-10-19T03:09:07;100140.34;;;9.39;65.94
74958;BME280;63741;42.624;26.276;2022-10-19T03:11:34;100139.28;;;9.41;65.83
74958;BME280;63741;42.624;26.276;2022-10-19T03:14:01;100145.81;;;9.35;65.66
74958;BME280;63741;42.624;26.276;2022-10-19T03:16:28;100141.84;;;9.28;66.60
74958;BME280;63741;42.624;26.276;2022-10-19T03:18:54;100136.50;;;9.30;66.68
74958;BME280;63741;42.624;26.276;2022-10-19T03:21:21;100145.19;;;9.18;65.97
74958;BME280;63741;42.624;26.276;2022-10-19T03:23:48;100136.97;;;9.22;66.29
74958;BME280;63741;42.624;26.276;2022-10-19T03:26:16;100143.41;;;9.18;66.92
74958;BME280;63741;42.624;26.276;2022-10-19T03:28:43;100143.97;;;9.09;66.40
74958;BME280;63741;42.624;26.276;2022-10-19T03:31:10;100136.06;;;9.09;67.17
74958;BME280;63741;42.624;26.276;2022-10-19T03:33:37;100135.53;;;8.90;66.21
74958;BME280;63741;42.624;26.276;2022-10-19T03:36:23;100138.56;;;8.98;66.18
74958;BME280;63741;42.624;26.276;2022-10-19T03:38:57;100124.22;;;9.02;66.40
74958;BME280;63741;42.624;26.276;2022-10-19T03:41:27;100128.16;;;9.09;66.25
74958;BME280;63741;42.624;26.276;2022-10-19T03:43:55;100127.19;;;9.10;65.73
74958;BME280;63741;42.624;26.276;2022-10-19T03:46:22;100128.88;;;8.84;66.80
74958;BME280;63741;42.624;26.276;2022-10-19T03:48:49;100118.94;;;8.88;67.14
74958;BME280;63741;42.624;26.276;2022-10-19T03:51:19;100126.16;;;8.71;66.80
74958;BME280;63741;42.624;26.276;2022-10-19T03:53:50;100124.34;;;8.72;67.31
74958;BME280;63741;42.624;26.276;2022-10-19T03:56:20;100116.63;;;8.69;67.88
74958;BME280;63741;42.624;26.276;2022-10-19T03:58:49;100124.06;;;8.76;66.72
74958;BME280;63741;42.624;26.276;2022-10-19T04:03:55;100113.25;;;8.67;67.57
74958;BME280;63741;42.624;26.276;2022-10-19T04:06:33;100112.47;;;8.65;67.09
74958;BME280;63741;42.624;26.276;2022-10-19T04:09:02;100103.81;;;8.63;67.54
74958;BME280;63741;42.624;26.276;2022-10-19T04:11:29;100102.22;;;8.60;67.20
74958;BME280;63741;42.624;26.276;2022-10-19T04:13:57;100099.28;;;8.65;68.07
74958;BME280;63741;42.624;26.276;2022-10-19T04:16:26;100091.47;;;8.63;66.89
74958;BME280;63741;42.624;26.276;2022-10-19T04:18:54;100087.63;;;8.54;67.93
74958;BME280;63741;42.624;26.276;2022-10-19T04:21:28;100095.41;;;8.70;66.58
74958;BME280;63741;42.624;26.276;2022-10-19T04:26:25;100102.03;;;8.63;67.72
74958;BME280;63741;42.624;26.276;2022-10-19T04:28:53;100095.81;;;8.50;67.56
74958;BME280;63741;42.624;26.276;2022-10-19T04:31:20;100100.22;;;8.64;68.08
74958;BME280;63741;42.624;26.276;2022-10-19T04:33:46;100094.03;;;8.50;67.46
74958;BME280;63741;42.624;26.276;2022-10-19T04:36:13;100095.63;;;8.39;68.88
74958;BME280;63741;42.624;26.276;2022-10-19T04:38:40;100091.78;;;8.58;68.36
74958;BME280;63741;42.624;26.276;2022-10-19T04:41:10;100085.22;;;8.78;66.92
74958;BME280;63741;42.624;26.276;2022-10-19T04:43:38;100087.59;;;8.69;66.59
74958;BME280;63741;42.624;26.276;2022-10-19T04:46:08;100087.28;;;8.88;65.59
74958;BME280;63741;42.624;26.276;2022-10-19T04:48:37;100076.97;;;9.11;65.75
74958;BME280;63741;42.624;26.276;2022-10-19T04:51:04;100069.13;;;9.24;64.83
74958;BME280;63741;42.624;26.276;2022-10-19T04:53:32;100077.34;;;9.59;62.63
74958;BME280;63741;42.624;26.276;2022-10-19T04:56:03;100075.34;;;9.63;63.51
74958;BME280;63741;42.624;26.276;2022-10-19T04:58:31;100074.56;;;9.88;61.92
74958;BME280;63741;42.624;26.276;2022-10-19T05:00:58;100079.66;;;10.17;60.85
74958;BME280;63741;42.624;26.276;2022-10-19T05:03:25;100075.09;;;10.57;59.49
74958;BME280;63741;42.624;26.276;2022-10-19T05:05:51;100076.03;;;10.81;59.45
74958;BME280;63741;42.624;26.276;2022-10-19T05:08:18;100080.75;;;10.89;58.41
74958;BME280;63741;42.624;26.276;2022-10-19T05:10:45;100092.94;;;10.92;57.99
74958;BME280;63741;42.624;26.276;2022-10-19T05:13:13;100073.81;;;10.62;59.35
74958;BME280;63741;42.624;26.276;2022-10-19T05:15:40;100083.06;;;10.44;59.36
74958;BME280;63741;42.624;26.276;2022-10-19T05:18:07;100091.09;;;10.43;60.33
74958;BME280;63741;42.624;26.276;2022-10-19T05:20:34;100078.84;;;10.42;60.15
74958;BME280;63741;42.624;26.276;2022-10-19T05:23:00;100091.63;;;10.60;59.70
74958;BME280;63741;42.624;26.276;2022-10-19T05:25:32;100087.63;;;10.42;60.24
74958;BME280;63741;42.624;26.276;2022-10-19T05:27:59;100089.47;;;10.78;59.74
74958;BME280;63741;42.624;26.276;2022-10-19T05:30:26;100095.69;;;10.90;59.43
74958;BME280;63741;42.624;26.276;2022-10-19T05:32:53;100099.22;;;10.78;59.67
74958;BME280;63741;42.624;26.276;2022-10-19T05:35:20;100099.28;;;10.89;59.33
74958;BME280;63741;42.624;26.276;2022-10-19T05:37:53;100102.94;;;11.12;58.72
74958;BME280;63741;42.624;26.276;2022-10-19T05:40:20;100089.78;;;11.10;58.66
74958;BME280;63741;42.624;26.276;2022-10-19T05:42:47;100105.13;;;11.18;58.68
74958;BME280;63741;42.624;26.276;2022-10-19T05:45:13;100090.63;;;11.48;57.25
74958;BME280;63741;42.624;26.276;2022-10-19T05:47:40;100092.75;;;11.67;56.60
74958;BME280;63741;42.624;26.276;2022-10-19T05:50:08;100097.53;;;11.61;56.68
74958;BME280;63741;42.624;26.276;2022-10-19T05:52:35;100108.41;;;11.46;57.80
74958;BME280;63741;42.624;26.276;2022-10-19T05:55:02;100100.22;;;11.73;56.64
74958;BME280;63741;42.624;26.276;2022-10-19T05:57:31;100098.81;;;12.15;56.17
74958;BME280;63741;42.624;26.276;2022-10-19T05:59:58;100100.06;;;12.67;54.39
74958;BME280;63741;42.624;26.276;2022-10-19T06:02:25;100095.00;;;12.64;54.37
74958;BME280;63741;42.624;26.276;2022-10-19T06:04:52;100097.41;;;12.67;54.65
74958;BME280;63741;42.624;26.276;2022-10-19T06:07:19;100095.06;;;13.07;54.07
74958;BME280;63741;42.624;26.276;2022-10-19T06:09:46;100096.28;;;13.03;53.80
74958;BME280;63741;42.624;26.276;2022-10-19T06:12:13;100100.63;;;13.27;53.84
74958;BME280;63741;42.624;26.276;2022-10-19T06:14:41;100097.44;;;13.44;53.38
74958;BME280;63741;42.624;26.276;2022-10-19T06:17:09;100100.66;;;13.48;53.18
74958;BME280;63741;42.624;26.276;2022-10-19T06:19:36;100096.03;;;13.29;53.99
74958;BME280;63741;42.624;26.276;2022-10-19T06:22:03;100097.34;;;13.67;53.46
74958;BME280;63741;42.624;26.276;2022-10-19T06:24:30;100099.06;;;14.09;51.91
74958;BME280;63741;42.624;26.276;2022-10-19T06:26:57;100101.72;;;13.88;53.04
74958;BME280;63741;42.624;26.276;2022-10-19T06:29:23;100100.75;;;13.89;52.91
74958;BME280;63741;42.624;26.276;2022-10-19T06:31:50;100103.13;;;13.72;53.03
74958;BME280;63741;42.624;26.276;2022-10-19T06:34:19;100099.78;;;14.11;51.55
74958;BME280;63741;42.624;26.276;2022-10-19T06:36:46;100097.69;;;14.36;51.62
74958;BME280;63741;42.624;26.276;2022-10-19T06:39:13;100102.56;;;14.52;50.71
74958;BME280;63741;42.624;26.276;2022-10-19T06:41:40;100107.06;;;14.91;50.52
74958;BME280;63741;42.624;26.276;2022-10-19T06:44:16;100112.44;;;15.11;49.43
74958;BME280;63741;42.624;26.276;2022-10-19T06:46:43;100101.28;;;14.86;50.35
74958;BME280;63741;42.624;26.276;2022-10-19T06:49:12;100104.59;;;15.09;50.20
74958;BME280;63741;42.624;26.276;2022-10-19T06:51:39;100109.81;;;15.30;49.38
74958;BME280;63741;42.624;26.276;2022-10-19T06:54:06;100100.72;;;15.23;49.58
74958;BME280;63741;42.624;26.276;2022-10-19T06:56:33;100096.53;;;15.59;47.42
74958;BME280;63741;42.624;26.276;2022-10-19T06:59:00;100099.38;;;15.77;47.69
74958;BME280;63741;42.624;26.276;2022-10-19T07:01:27;100093.44;;;16.03;47.23
74958;BME280;63741;42.624;26.276;2022-10-19T07:03:54;100097.38;;;16.08;46.55
74958;BME280;63741;42.624;26.276;2022-10-19T07:06:21;100103.13;;;16.13;46.82
74958;BME280;63741;42.624;26.276;2022-10-19T07:08:48;100100.72;;;16.20;46.79
74958;BME280;63741;42.624;26.276;2022-10-19T07:11:17;100100.47;;;16.13;47.50
74958;BME280;63741;42.624;26.276;2022-10-19T07:13:45;100104.41;;;16.09;47.58
74958;BME280;63741;42.624;26.276;2022-10-19T07:16:13;100102.88;;;15.87;48.11
74958;BME280;63741;42.624;26.276;2022-10-19T07:18:47;100097.75;;;16.33;46.89
74958;BME280;63741;42.624;26.276;2022-10-19T07:21:15;100093.16;;;16.62;46.24
74958;BME280;63741;42.624;26.276;2022-10-19T07:23:43;100102.22;;;16.89;44.71
74958;BME280;63741;42.624;26.276;2022-10-19T07:26:19;100100.56;;;17.33;44.08
74958;BME280;63741;42.624;26.276;2022-10-19T07:28:49;100112.69;;;17.46;44.22
74958;BME280;63741;42.624;26.276;2022-10-19T07:31:18;100096.53;;;17.65;43.21
74958;BME280;63741;42.624;26.276;2022-10-19T07:33:51;100096.59;;;18.09;42.73
74958;BME280;63741;42.624;26.276;2022-10-19T07:36:18;100096.59;;;18.09;43.54
74958;BME280;63741;42.624;26.276;2022-10-19T07:38:45;100086.72;;;18.09;44.95
74958;BME280;63741;42.624;26.276;2022-10-19T07:41:17;100089.69;;;18.06;43.36
74958;BME280;63741;42.624;26.276;2022-10-19T07:43:45;100086.69;;;18.27;43.49
74958;BME280;63741;42.624;26.276;2022-10-19T07:46:17;100087.16;;;18.23;44.22
74958;BME280;63741;42.624;26.276;2022-10-19T07:48:45;100090.06;;;18.63;43.40
74958;BME280;63741;42.624;26.276;2022-10-19T07:51:14;100089.19;;;18.81;42.63
74958;BME280;63741;42.624;26.276;2022-10-19T07:53:42;100086.84;;;18.60;42.34
74958;BME280;63741;42.624;26.276;2022-10-19T07:56:14;100077.13;;;18.85;42.55
74958;BME280;63741;42.624;26.276;2022-10-19T07:58:41;100073.34;;;19.04;42.31
74958;BME280;63741;42.624;26.276;2022-10-19T08:01:11;100076.91;;;19.21;41.65
74958;BME280;63741;42.624;26.276;2022-10-19T08:03:39;100059.84;;;18.79;43.85
74958;BME280;63741;42.624;26.276;2022-10-19T08:06:26;100053.78;;;18.69;42.86
74958;BME280;63741;42.624;26.276;2022-10-19T08:08:54;100057.31;;;18.78;42.83
74958;BME280;63741;42.624;26.276;2022-10-19T08:11:24;100048.13;;;18.80;42.87
74958;BME280;63741;42.624;26.276;2022-10-19T08:13:52;100049.53;;;18.32;43.66
74958;BME280;63741;42.624;26.276;2022-10-19T08:16:27;100047.03;;;18.65;42.96
74958;BME280;63741;42.624;26.276;2022-10-19T08:18:58;100048.50;;;18.85;42.51
74958;BME280;63741;42.624;26.276;2022-10-19T08:21:27;100044.66;;;18.96;42.77
74958;BME280;63741;42.624;26.276;2022-10-19T08:23:55;100046.56;;;19.12;42.48
74958;BME280;63741;42.624;26.276;2022-10-19T08:26:22;100041.41;;;19.43;41.63
74958;BME280;63741;42.624;26.276;2022-10-19T08:28:49;100032.34;;;19.36;41.82
74958;BME280;63741;42.624;26.276;2022-10-19T08:31:19;100036.47;;;18.98;43.65
74958;BME280;63741;42.624;26.276;2022-10-19T08:33:48;100021.41;;;19.13;42.73
74958;BME280;63741;42.624;26.276;2022-10-19T08:36:17;100020.78;;;19.60;43.71
74958;BME280;63741;42.624;26.276;2022-10-19T08:38:48;100006.56;;;19.51;42.76
74958;BME280;63741;42.624;26.276;2022-10-19T08:43:56;100009.94;;;19.61;41.89
74958;BME280;63741;42.624;26.276;2022-10-19T08:49:14;99997.59;;;20.16;40.69
74958;BME280;63741;42.624;26.276;2022-10-19T08:51:50;100001.28;;;20.15;41.66
74958;BME280;63741;42.624;26.276;2022-10-19T08:54:19;99998.50;;;19.84;42.05
74958;BME280;63741;42.624;26.276;2022-10-19T08:56:53;99996.63;;;20.01;41.71
74958;BME280;63741;42.624;26.276;2022-10-19T08:59:32;99994.97;;;19.91;42.15
74958;BME280;63741;42.624;26.276;2022-10-19T09:04:45;99993.84;;;20.33;40.51
74958;BME280;63741;42.624;26.276;2022-10-19T09:07:32;99991.09;;;20.58;40.46
74958;BME280;63741;42.624;26.276;2022-10-19T09:10:15;99986.94;;;20.86;40.05
74958;BME280;63741;42.624;26.276;2022-10-19T09:15:39;99988.03;;;21.00;38.08
74958;BME280;63741;42.624;26.276;2022-10-19T09:18:13;99980.97;;;20.68;38.35
74958;BME280;63741;42.624;26.276;2022-10-19T09:20:47;99982.31;;;20.72;37.96
74958;BME280;63741;42.624;26.276;2022-10-19T09:25:52;99970.91;;;21.16;37.18
74958;BME280;63741;42.624;26.276;2022-10-19T09:28:34;99966.50;;;21.46;36.61
74958;BME280;63741;42.624;26.276;2022-10-19T09:31:12;99963.97;;;21.67;35.26
74958;BME280;63741;42.624;26.276;2022-10-19T09:33:41;99957.50;;;21.77;35.42
74958;BME280;63741;42.624;26.276;2022-10-19T09:36:10;99955.41;;;22.16;35.35
74958;BME280;63741;42.624;26.276;2022-10-19T09:38:53;99943.13;;;21.47;36.06
74958;BME280;63741;42.624;26.276;2022-10-19T09:41:21;99957.53;;;21.54;36.93
74958;BME280;63741;42.624;26.276;2022-10-19T09:43:52;99939.34;;;21.56;35.67
74958;BME280;63741;42.624;26.276;2022-10-19T09:49:45;99933.06;;;21.63;35.84
74958;BME280;63741;42.624;26.276;2022-10-19T09:52:22;99925.84;;;21.18;35.41
74958;BME280;63741;42.624;26.276;2022-10-19T09:55:00;99926.28;;;21.82;34.26
74958;BME280;63741;42.624;26.276;2022-10-19T09:57:28;99919.19;;;21.52;34.34
74958;BME280;63741;42.624;26.276;2022-10-19T09:59:55;99914.97;;;21.72;32.90
74958;BME280;63741;42.624;26.276;2022-10-19T10:02:30;99912.81;;;21.67;33.39
74958;BME280;63741;42.624;26.276;2022-10-19T10:07:37;99909.41;;;21.88;33.52
74958;BME280;63741;42.624;26.276;2022-10-19T10:12:38;99900.59;;;21.80;34.05
74958;BME280;63741;42.624;26.276;2022-10-19T10:15:06;99901.41;;;21.95;34.54
74958;BME280;63741;42.624;26.276;2022-10-19T10:17:33;99891.47;;;21.81;32.35
74958;BME280;63741;42.624;26.276;2022-10-19T10:20:15;99895.28;;;21.86;31.37
74958;BME280;63741;42.624;26.276;2022-10-19T10:22:51;99889.88;;;22.31;31.61
74958;BME280;63741;42.624;26.276;2022-10-19T10:25:18;99884.69;;;22.65;31.38
74958;BME280;63741;42.624;26.276;2022-10-19T10:28:00;99886.47;;;22.22;31.51
74958;BME280;63741;42.624;26.276;2022-10-19T10:30:35;99871.31;;;22.57;30.66
74958;BME280;63741;42.624;26.276;2022-10-19T10:33:03;99878.84;;;22.26;31.22
74958;BME280;63741;42.624;26.276;2022-10-19T10:35:47;99883.78;;;21.92;31.88
74958;BME280;63741;42.624;26.276;2022-10-19T10:40:55;99861.19;;;21.64;31.44
74958;BME280;63741;42.624;26.276;2022-10-19T10:43:30;99862.31;;;21.84;31.76
74958;BME280;63741;42.624;26.276;2022-10-19T10:46:24;99846.41;;;22.04;31.30
74958;BME280;63741;42.624;26.276;2022-10-19T10:48:56;99839.28;;;22.48;29.78
74958;BME280;63741;42.624;26.276;2022-10-19T10:51:32;99836.94;;;22.23;30.82
74958;BME280;63741;42.624;26.276;2022-10-19T10:54:18;99827.47;;;22.49;30.88
74958;BME280;63741;42.624;26.276;2022-10-19T10:59:56;99821.47;;;22.89;29.98
74958;BME280;63741;42.624;26.276;2022-10-19T11:05:05;99816.91;;;22.90;30.02
74958;BME280;63741;42.624;26.276;2022-10-19T11:07:34;99811.75;;;22.74;30.32
74958;BME280;63741;42.624;26.276;2022-10-19T11:10:10;99813.50;;;22.60;30.45
74958;BME280;63741;42.624;26.276;2022-10-19T11:12:46;99808.72;;;22.83;29.30
74958;BME280;63741;42.624;26.276;2022-10-19T11:15:33;99803.31;;;23.26;28.79
74958;BME280;63741;42.624;26.276;2022-10-19T11:31:54;99797.66;;;23.90;28.08
74958;BME280;63741;42.624;26.276;2022-10-19T11:37:38;99783.38;;;24.03;28.88
74958;BME280;63741;42.624;26.276;2022-10-19T11:40:34;99780.47;;;24.05;28.91
74958;BME280;63741;42.624;26.276;2022-10-19T11:52:32;99764.81;;;23.87;28.31
74958;BME280;63741;42.624;26.276;2022-10-19T12:01:01;99760.56;;;24.32;27.81
74958;BME280;63741;42.624;26.276;2022-10-19T12:14:10;99731.31;;;24.56;27.40
74958;BME280;63741;42.624;26.276;2022-10-19T12:16:49;99732.53;;;24.40;27.61
74958;BME280;63741;42.624;26.276;2022-10-19T12:19:21;99734.75;;;24.23;26.92
74958;BME280;63741;42.624;26.276;2022-10-19T12:21:54;99727.09;;;24.33;27.65
74958;BME280;63741;42.624;26.276;2022-10-19T12:24:24;99724.41;;;24.33;27.31
74958;BME280;63741;42.624;26.276;2022-10-19T12:26:54;99733.59;;;24.39;27.35
74958;BME280;63741;42.624;26.276;2022-10-19T12:29:28;99721.94;;;24.45;27.70
74958;BME280;63741;42.624;26.276;2022-10-19T12:31:58;99715.91;;;24.69;26.17
74958;BME280;63741;42.624;26.276;2022-10-19T12:37:43;99715.66;;;24.91;26.73
74958;BME280;63741;42.624;26.276;2022-10-19T12:40:24;99714.84;;;24.64;26.62
74958;BME280;63741;42.624;26.276;2022-10-19T12:43:07;99710.06;;;24.59;26.31
74958;BME280;63741;42.624;26.276;2022-10-19T12:48:31;99704.88;;;24.58;26.42
74958;BME280;63741;42.624;26.276;2022-10-19T12:51:04;99706.72;;;24.31;26.57
74958;BME280;63741;42.624;26.276;2022-10-19T12:53:36;99703.84;;;24.39;26.71
74958;BME280;63741;42.624;26.276;2022-10-19T12:56:07;99704.03;;;24.51;26.19
74958;BME280;63741;42.624;26.276;2022-10-19T13:04:05;99714.22;;;25.02;26.10
74958;BME280;63741;42.624;26.276;2022-10-19T13:06:35;99700.66;;;24.29;26.45
74958;BME280;63741;42.624;26.276;2022-10-19T13:09:05;99698.44;;;24.52;26.96
74958;BME280;63741;42.624;26.276;2022-10-19T13:11:34;99703.00;;;24.58;26.03
74958;BME280;63741;42.624;26.276;2022-10-19T13:16:56;99702.34;;;25.16;26.51
74958;BME280;63741;42.624;26.276;2022-10-19T13:19:23;99696.72;;;25.17;25.46
74958;BME280;63741;42.624;26.276;2022-10-19T13:24:35;99686.56;;;24.73;25.38
74958;BME280;63741;42.624;26.276;2022-10-19T13:29:39;99683.44;;;24.83;24.95
74958;BME280;63741;42.624;26.276;2022-10-19T13:34:52;99686.78;;;24.78;24.35
74958;BME280;63741;42.624;26.276;2022-10-19T13:37:20;99696.97;;;24.76;24.72
74958;BME280;63741;42.624;26.276;2022-10-19T13:39:48;99685.06;;;24.97;24.83
74958;BME280;63741;42.624;26.276;2022-10-19T13:42:25;99689.00;;;25.21;24.56
74958;BME280;63741;42.624;26.276;2022-10-19T13:44:53;99689.41;;;25.18;25.07
74958;BME280;63741;42.624;26.276;2022-10-19T13:47:38;99689.84;;;25.08;26.24
74958;BME280;63741;42.624;26.276;2022-10-19T13:50:18;99694.22;;;25.23;26.09
74958;BME280;63741;42.624;26.276;2022-10-19T13:53:10;99691.44;;;25.36;25.81
74958;BME280;63741;42.624;26.276;2022-10-19T14:01:37;99687.63;;;24.65;18.23
74958;BME280;63741;42.624;26.276;2022-10-19T14:04:55;99692.59;;;24.62;20.11
74958;BME280;63741;42.624;26.276;2022-10-19T14:07:24;99684.06;;;24.58;18.37
74958;BME280;63741;42.624;26.276;2022-10-19T14:10:27;99682.16;;;24.32;19.10
74958;BME280;63741;42.624;26.276;2022-10-19T14:13:14;99675.56;;;24.48;20.50
74958;BME280;63741;42.624;26.276;2022-10-19T14:15:50;99672.66;;;24.43;19.21
74958;BME280;63741;42.624;26.276;2022-10-19T14:18:29;99677.59;;;24.26;20.33
74958;BME280;63741;42.624;26.276;2022-10-19T14:21:03;99666.53;;;24.01;19.09
74958;BME280;63741;42.624;26.276;2022-10-19T14:23:36;99663.78;;;23.75;20.28
74958;BME280;63741;42.624;26.276;2022-10-19T14:26:06;99662.53;;;23.77;21.30
74958;BME280;63741;42.624;26.276;2022-10-19T14:28:37;99665.44;;;23.69;21.53
74958;BME280;63741;42.624;26.276;2022-10-19T14:31:11;99659.34;;;23.60;20.05
74958;BME280;63741;42.624;26.276;2022-10-19T14:33:45;99656.16;;;23.43;19.77
74958;BME280;63741;42.624;26.276;2022-10-19T14:36:16;99659.00;;;23.29;21.14
74958;BME280;63741;42.624;26.276;2022-10-19T14:38:45;99658.19;;;23.28;21.64
74958;BME280;63741;42.624;26.276;2022-10-19T14:41:31;99654.81;;;23.19;21.69
74958;BME280;63741;42.624;26.276;2022-10-19T14:44:43;99659.09;;;23.07;22.35
74958;BME280;63741;42.624;26.276;2022-10-19T14:47:21;99654.22;;;22.89;21.86
74958;BME280;63741;42.624;26.276;2022-10-19T14:49:49;99655.16;;;22.75;24.11
74958;BME280;63741;42.624;26.276;2022-10-19T14:52:24;99656.22;;;22.53;23.87
74958;BME280;63741;42.624;26.276;2022-10-19T14:55:03;99658.47;;;22.49;22.91
74958;BME280;63741;42.624;26.276;2022-10-19T14:57:34;99653.06;;;22.21;24.07
74958;BME280;63741;42.624;26.276;2022-10-19T15:00:05;99656.97;;;22.18;24.08
74958;BME280;63741;42.624;26.276;2022-10-19T15:02:38;99662.78;;;21.79;24.05
74958;BME280;63741;42.624;26.276;2022-10-19T15:05:18;99661.25;;;21.55;23.59
74958;BME280;63741;42.624;26.276;2022-10-19T15:07:46;99657.31;;;21.22;24.42
74958;BME280;63741;42.624;26.276;2022-10-19T15:10:26;99663.72;;;21.06;25.47
74958;BME280;63741;42.624;26.276;2022-10-19T15:13:02;99667.44;;;21.05;24.80
74958;BME280;63741;42.624;26.276;2022-10-19T15:15:32;99666.00;;;20.79;25.38
74958;BME280;63741;42.624;26.276;2022-10-19T15:20:36;99658.31;;;20.61;27.37
74958;BME280;63741;42.624;26.276;2022-10-19T15:23:37;99665.00;;;20.42;25.06